createdAt,value
2017-08-24T00:00:16.298Z,967.57
2017-08-24T00:01:16.295Z,967.57
2017-08-24T00:02:16.292Z,967.59
2017-08-24T00:03:16.289Z,967.58
2017-08-24T00:04:16.287Z,967.61
2017-08-24T00:05:16.284Z,967.57
2017-08-24T00:06:16.282Z,967.56
2017-08-24T00:07:16.279Z,967.59
2017-08-24T00:08:16.277Z,967.58
2017-08-24T00:09:16.274Z,967.61
2017-08-24T00:10:16.271Z,967.57
2017-08-24T00:11:16.269Z,967.56
2017-08-24T00:12:16.266Z,967.59
2017-08-24T00:13:16.264Z,967.57
2017-08-24T00:14:16.261Z,967.57
2017-08-24T00:15:16.261Z,967.57
2017-08-24T00:16:16.257Z,967.58
2017-08-24T00:17:16.252Z,967.6
2017-08-24T00:18:16.254Z,967.61
2017-08-24T00:19:16.247Z,967.6
2017-08-24T00:20:16.244Z,967.59
2017-08-24T00:21:16.243Z,967.64
2017-08-24T00:22:16.241Z,967.59
2017-08-24T00:23:16.238Z,967.62
2017-08-24T00:24:16.236Z,967.62
2017-08-24T00:25:16.232Z,967.62
2017-08-24T00:26:16.231Z,967.65
2017-08-24T00:27:16.226Z,967.64
2017-08-24T00:28:16.224Z,967.62
2017-08-24T00:29:16.221Z,967.65
2017-08-24T00:30:16.219Z,967.63
2017-08-24T00:31:16.217Z,967.67
2017-08-24T00:32:16.214Z,967.67
2017-08-24T00:33:16.311Z,967.67
2017-08-24T00:34:16.211Z,967.65
2017-08-24T00:35:16.207Z,967.69
2017-08-24T00:36:16.206Z,967.69
2017-08-24T00:37:16.203Z,967.7
2017-08-24T00:38:16.199Z,967.69
2017-08-24T00:39:16.196Z,967.68
2017-08-24T00:40:16.194Z,967.7
2017-08-24T00:41:16.190Z,967.7
2017-08-24T00:42:16.187Z,967.71
2017-08-24T00:43:16.184Z,967.73
2017-08-24T00:44:16.182Z,967.76
2017-08-24T00:45:16.179Z,967.76
2017-08-24T00:46:16.176Z,967.76
2017-08-24T00:47:16.176Z,967.76
2017-08-24T00:48:16.171Z,967.73
2017-08-24T00:49:16.168Z,967.75
2017-08-24T00:50:16.166Z,967.75
2017-08-24T00:51:16.164Z,967.77
2017-08-24T00:52:16.161Z,967.78
2017-08-24T00:53:16.160Z,967.84
2017-08-24T00:54:16.157Z,967.8
2017-08-24T00:55:16.153Z,967.79
2017-08-24T00:56:16.153Z,967.8
2017-08-24T00:57:16.150Z,967.76
2017-08-24T00:58:16.147Z,967.75
2017-08-24T00:59:16.145Z,967.81
2017-08-24T01:00:16.142Z,967.8
2017-08-24T01:01:16.140Z,967.81
2017-08-24T01:02:16.137Z,967.82
2017-08-24T01:03:16.135Z,967.79
2017-08-24T01:04:16.131Z,967.79
2017-08-24T01:05:16.128Z,967.85
2017-08-24T01:06:16.227Z,967.83
2017-08-24T01:07:16.123Z,967.82
2017-08-24T01:08:16.122Z,967.84
2017-08-24T01:09:16.117Z,967.83
2017-08-24T01:10:16.115Z,967.81
2017-08-24T01:11:16.113Z,967.8
2017-08-24T01:12:16.110Z,967.82
2017-08-24T01:13:16.109Z,967.83
2017-08-24T01:14:16.105Z,967.85
2017-08-24T01:15:16.103Z,967.83
2017-08-24T01:16:16.101Z,967.86
2017-08-24T01:17:16.097Z,967.85
2017-08-24T01:18:16.094Z,967.83
2017-08-24T01:19:16.091Z,967.84
2017-08-24T01:20:16.089Z,967.8
2017-08-24T01:21:16.088Z,967.79
2017-08-24T01:22:16.084Z,967.82
2017-08-24T01:23:16.082Z,967.83
2017-08-24T01:24:16.079Z,967.83
2017-08-24T01:25:16.074Z,967.84
2017-08-24T01:26:16.072Z,967.84
2017-08-24T01:27:16.072Z,967.87
2017-08-24T01:28:16.068Z,967.87
2017-08-24T01:29:16.166Z,967.86
2017-08-24T01:30:16.062Z,967.86
2017-08-24T01:31:16.060Z,967.92
2017-08-24T01:32:16.057Z,967.9
2017-08-24T01:33:16.054Z,967.91
2017-08-24T01:34:16.053Z,967.9
2017-08-24T01:35:16.049Z,967.9
2017-08-24T01:36:16.047Z,967.9
2017-08-24T01:37:16.045Z,967.9
2017-08-24T01:38:16.041Z,967.87
2017-08-24T01:39:16.040Z,967.87
2017-08-24T01:40:16.035Z,967.79
2017-08-24T01:41:16.033Z,967.83
2017-08-24T01:42:16.030Z,967.83
2017-08-24T01:43:16.029Z,967.82
2017-08-24T01:44:16.024Z,967.81
2017-08-24T01:45:16.122Z,967.82
2017-08-24T01:46:16.020Z,967.82
2017-08-24T01:47:16.016Z,967.8
2017-08-24T01:48:16.013Z,967.8
2017-08-24T01:49:16.011Z,967.82
2017-08-24T01:50:16.008Z,967.81
2017-08-24T01:51:16.004Z,967.8
2017-08-24T01:52:16.004Z,967.85
2017-08-24T01:53:16.001Z,967.84
2017-08-24T01:54:15.999Z,967.83
2017-08-24T01:55:15.994Z,967.83
2017-08-24T01:56:16.012Z,967.85
2017-08-24T01:57:15.990Z,967.87
2017-08-24T01:58:15.986Z,967.86
2017-08-24T01:59:15.983Z,967.88
2017-08-24T02:00:15.983Z,967.87
2017-08-24T02:01:15.979Z,967.88
2017-08-24T02:02:15.975Z,967.86
2017-08-24T02:03:15.973Z,967.85
2017-08-24T02:04:15.970Z,967.88
2017-08-24T02:05:15.967Z,967.87
2017-08-24T02:06:15.965Z,967.89
2017-08-24T02:07:15.962Z,967.89
2017-08-24T02:08:15.960Z,967.89
2017-08-24T02:09:15.957Z,967.9
2017-08-24T02:10:15.953Z,967.93
2017-08-24T02:11:15.952Z,967.89
2017-08-24T02:12:15.949Z,967.91
2017-08-24T02:13:15.946Z,967.9
2017-08-24T02:14:15.943Z,967.92
2017-08-24T02:15:15.940Z,967.92
2017-08-24T02:16:15.937Z,967.92
2017-08-24T02:17:15.935Z,967.96
2017-08-24T02:18:15.932Z,967.97
2017-08-24T02:19:15.930Z,967.93
2017-08-24T02:20:15.927Z,967.97
2017-08-24T02:21:15.924Z,967.95
2017-08-24T02:22:15.923Z,967.96
2017-08-24T02:23:15.918Z,967.94
2017-08-24T02:24:15.914Z,967.93
2017-08-24T02:25:15.913Z,967.96
2017-08-24T02:26:15.910Z,967.94
2017-08-24T02:27:15.908Z,968.01
2017-08-24T02:28:15.904Z,968.02
2017-08-24T02:29:15.901Z,968
2017-08-24T02:30:15.898Z,968.02
2017-08-24T02:31:15.895Z,968.05
2017-08-24T02:32:15.894Z,968.07
2017-08-24T02:33:15.890Z,968.05
2017-08-24T02:34:15.889Z,968.03
2017-08-24T02:35:15.885Z,968.03
2017-08-24T02:36:15.884Z,968.04
2017-08-24T02:37:15.880Z,968.05
2017-08-24T02:38:15.878Z,968.05
2017-08-24T02:39:15.975Z,968.12
2017-08-24T02:40:15.873Z,968.11
2017-08-24T02:41:15.873Z,968.1
2017-08-24T02:42:15.866Z,968.14
2017-08-24T02:43:15.861Z,968.1
2017-08-24T02:44:15.861Z,968.13
2017-08-24T02:45:15.860Z,968.13
2017-08-24T02:46:15.855Z,968.09
2017-08-24T02:47:15.853Z,968.11
2017-08-24T02:48:15.850Z,968.11
2017-08-24T02:49:15.848Z,968.1
2017-08-24T02:50:15.849Z,968.1
2017-08-24T02:51:15.841Z,968.12
2017-08-24T02:52:15.839Z,968.12
2017-08-24T02:53:15.836Z,968.05
2017-08-24T02:54:15.834Z,968.14
2017-08-24T02:55:15.830Z,968.14
2017-08-24T02:56:15.928Z,968.12
2017-08-24T02:57:15.827Z,968.08
2017-08-24T02:58:15.821Z,968.1
2017-08-24T02:59:15.821Z,968.11
2017-08-24T03:00:15.816Z,968.15
2017-08-24T03:01:15.813Z,968.13
2017-08-24T03:02:15.811Z,968.09
2017-08-24T03:03:15.809Z,968.08
2017-08-24T03:04:15.805Z,968.06
2017-08-24T03:05:15.802Z,968.07
2017-08-24T03:06:15.800Z,968.05
2017-08-24T03:07:15.799Z,968.1
2017-08-24T03:08:15.793Z,968.13
2017-08-24T03:09:15.890Z,968.12
2017-08-24T03:10:15.789Z,968.12
2017-08-24T03:11:15.785Z,968.11
2017-08-24T03:12:15.785Z,968.09
2017-08-24T03:13:15.781Z,968.16
2017-08-24T03:14:15.776Z,968.1
2017-08-24T03:15:15.772Z,968.12
2017-08-24T03:16:15.777Z,968.15
2017-08-24T03:17:15.769Z,968.1
2017-08-24T03:18:15.764Z,968.16
2017-08-24T03:19:15.762Z,968.14
2017-08-24T03:20:15.759Z,968.16
2017-08-24T03:21:15.757Z,968.17
2017-08-24T03:22:15.753Z,968.2
2017-08-24T03:23:15.752Z,968.2
2017-08-24T03:24:15.749Z,968.21
2017-08-24T03:25:15.746Z,968.2
2017-08-24T03:26:15.742Z,968.23
2017-08-24T03:27:15.742Z,968.21
2017-08-24T03:28:15.737Z,968.23
2017-08-24T03:29:15.735Z,968.2
2017-08-24T03:30:15.732Z,968.24
2017-08-24T03:31:15.728Z,968.22
2017-08-24T03:32:15.725Z,968.22
2017-08-24T03:33:15.722Z,968.23
2017-08-24T03:34:15.720Z,968.22
2017-08-24T03:35:15.717Z,968.19
2017-08-24T03:36:15.714Z,968.23
2017-08-24T03:37:15.711Z,968.23
2017-08-24T03:38:15.712Z,968.22
2017-08-24T03:39:15.707Z,968.18
2017-08-24T03:40:15.703Z,968.2
2017-08-24T03:41:15.700Z,968.2
2017-08-24T03:42:15.698Z,968.22
2017-08-24T03:43:15.794Z,968.2
2017-08-24T03:44:15.691Z,968.22
2017-08-24T03:45:15.690Z,968.22
2017-08-24T03:46:15.687Z,968.18
2017-08-24T03:47:15.683Z,968.21
2017-08-24T03:48:15.781Z,968.21
2017-08-24T03:49:15.678Z,968.2
2017-08-24T03:50:15.676Z,968.14
2017-08-24T03:51:15.672Z,968.21
2017-08-24T03:52:15.668Z,968.18
2017-08-24T03:53:15.665Z,968.2
2017-08-24T03:54:15.663Z,968.19
2017-08-24T03:55:15.660Z,968.17
2017-08-24T03:56:15.657Z,968.19
2017-08-24T03:57:15.655Z,968.17
2017-08-24T03:58:15.653Z,968.17
2017-08-24T03:59:15.649Z,968.17
2017-08-24T04:00:15.646Z,968.19
2017-08-24T04:01:15.648Z,968.19
2017-08-24T04:02:15.640Z,968.23
2017-08-24T04:03:15.637Z,968.25
2017-08-24T04:04:15.636Z,968.24
2017-08-24T04:05:15.632Z,968.26
2017-08-24T04:06:15.629Z,968.25
2017-08-24T04:07:15.625Z,968.23
2017-08-24T04:08:15.623Z,968.24
2017-08-24T04:09:15.621Z,968.25
2017-08-24T04:10:15.615Z,968.3
2017-08-24T04:11:15.714Z,968.27
2017-08-24T04:12:15.612Z,968.27
2017-08-24T04:13:15.610Z,968.3
2017-08-24T04:14:15.606Z,968.3
2017-08-24T04:15:15.604Z,968.3
2017-08-24T04:16:15.600Z,968.32
2017-08-24T04:17:15.598Z,968.27
2017-08-24T04:18:15.594Z,968.27
2017-08-24T04:19:15.592Z,968.3
2017-08-24T04:20:15.588Z,968.3
2017-08-24T04:21:15.585Z,968.29
2017-08-24T04:22:15.583Z,968.32
2017-08-24T04:23:15.580Z,968.35
2017-08-24T04:24:15.578Z,968.35
2017-08-24T04:25:15.574Z,968.34
2017-08-24T04:26:15.572Z,968.36
2017-08-24T04:27:15.568Z,968.32
2017-08-24T04:28:15.564Z,968.33
2017-08-24T04:29:15.563Z,968.38
2017-08-24T04:30:15.561Z,968.36
2017-08-24T04:31:15.557Z,968.38
2017-08-24T04:32:15.554Z,968.36
2017-08-24T04:33:15.551Z,968.37
2017-08-24T04:34:15.549Z,968.38
2017-08-24T04:35:15.545Z,968.39
2017-08-24T04:36:15.542Z,968.41
2017-08-24T04:37:15.543Z,968.42
2017-08-24T04:38:15.537Z,968.44
2017-08-24T04:39:15.533Z,968.45
2017-08-24T04:40:15.532Z,968.44
2017-08-24T04:41:15.528Z,968.45
2017-08-24T04:42:15.526Z,968.44
2017-08-24T04:43:15.523Z,968.43
2017-08-24T04:44:15.520Z,968.48
2017-08-24T04:45:15.515Z,968.45
2017-08-24T04:46:15.513Z,968.46
2017-08-24T04:47:15.510Z,968.48
2017-08-24T04:48:15.509Z,968.51
2017-08-24T04:49:15.506Z,968.49
2017-08-24T04:50:15.503Z,968.49
2017-08-24T04:51:15.497Z,968.47
2017-08-24T04:52:15.497Z,968.5
2017-08-24T04:53:15.493Z,968.44
2017-08-24T04:54:15.490Z,968.48
2017-08-24T04:55:15.488Z,968.47
2017-08-24T04:56:15.485Z,968.46
2017-08-24T04:57:15.481Z,968.49
2017-08-24T04:58:15.478Z,968.45
2017-08-24T04:59:15.476Z,968.49
2017-08-24T05:00:15.473Z,968.51
2017-08-24T05:01:15.470Z,968.52
2017-08-24T05:02:15.468Z,968.54
2017-08-24T05:03:15.464Z,968.53
2017-08-24T05:04:15.467Z,968.55
2017-08-24T05:05:15.457Z,968.55
2017-08-24T05:06:15.456Z,968.58
2017-08-24T05:07:15.453Z,968.59
2017-08-24T05:08:15.449Z,968.63
2017-08-24T05:09:15.447Z,968.64
2017-08-24T05:10:15.446Z,968.63
2017-08-24T05:11:15.442Z,968.6
2017-08-24T05:12:15.438Z,968.59
2017-08-24T05:13:15.436Z,968.65
2017-08-24T05:14:15.434Z,968.64
2017-08-24T05:15:15.431Z,968.65
2017-08-24T05:16:15.428Z,968.64
2017-08-24T05:17:15.426Z,968.66
2017-08-24T05:18:15.423Z,968.66
2017-08-24T05:19:15.418Z,968.66
2017-08-24T05:20:15.418Z,968.65
2017-08-24T05:21:15.416Z,968.65
2017-08-24T05:22:15.412Z,968.67
2017-08-24T05:23:15.410Z,968.68
2017-08-24T05:24:15.406Z,968.7
2017-08-24T05:25:15.406Z,968.67
2017-08-24T05:26:15.401Z,968.68
2017-08-24T05:27:15.399Z,968.73
2017-08-24T05:28:15.396Z,968.69
2017-08-24T05:29:15.395Z,968.73
2017-08-24T05:30:15.389Z,968.72
2017-08-24T05:31:15.388Z,968.71
2017-08-24T05:32:15.386Z,968.75
2017-08-24T05:33:15.383Z,968.79
2017-08-24T05:34:15.381Z,968.81
2017-08-24T05:35:15.377Z,968.78
2017-08-24T05:36:15.377Z,968.81
2017-08-24T05:37:15.375Z,968.79
2017-08-24T05:38:15.371Z,968.8
2017-08-24T05:39:15.370Z,968.85
2017-08-24T05:40:15.367Z,968.84
2017-08-24T05:41:15.365Z,968.81
2017-08-24T05:42:15.361Z,968.78
2017-08-24T05:43:15.361Z,968.79
2017-08-24T05:44:15.358Z,968.79
2017-08-24T05:45:15.355Z,968.8
2017-08-24T05:46:15.354Z,968.78
2017-08-24T05:47:15.352Z,968.84
2017-08-24T05:48:15.451Z,968.85
2017-08-24T05:49:15.348Z,968.87
2017-08-24T05:50:15.347Z,968.89
2017-08-24T05:51:15.345Z,968.87
2017-08-24T05:52:15.343Z,968.9
2017-08-24T05:53:15.342Z,968.84
2017-08-24T05:54:15.340Z,968.88
2017-08-24T05:55:15.339Z,968.84
2017-08-24T05:56:15.337Z,968.89
2017-08-24T05:57:15.335Z,968.88
2017-08-24T05:58:15.334Z,968.92
2017-08-24T05:59:15.332Z,968.96
2017-08-24T06:00:15.330Z,968.95
2017-08-24T06:01:15.330Z,968.97
2017-08-24T06:02:15.330Z,968.98
2017-08-24T06:03:15.327Z,968.96
2017-08-24T06:04:15.326Z,968.96
2017-08-24T06:05:15.325Z,968.99
2017-08-24T06:06:15.324Z,969.02
2017-08-24T06:07:15.324Z,968.97
2017-08-24T06:08:15.322Z,968.99
2017-08-24T06:09:15.320Z,969.01
2017-08-24T06:10:15.319Z,968.98
2017-08-24T06:11:15.320Z,969.04
2017-08-24T06:12:15.318Z,969.01
2017-08-24T06:13:15.318Z,969.02
2017-08-24T06:14:15.317Z,969.03
2017-08-24T06:15:15.316Z,969.06
2017-08-24T06:16:15.315Z,969.06
2017-08-24T06:17:15.314Z,969.08
2017-08-24T06:18:15.313Z,969.09
2017-08-24T06:19:15.313Z,969.11
2017-08-24T06:20:15.313Z,969.13
2017-08-24T06:21:15.413Z,969.15
2017-08-24T06:22:15.312Z,969.12
2017-08-24T06:23:15.312Z,969.15
2017-08-24T06:24:15.313Z,969.17
2017-08-24T06:25:15.312Z,969.18
2017-08-24T06:26:15.312Z,969.15
2017-08-24T06:27:15.312Z,969.16
2017-08-24T06:28:15.312Z,969.16
2017-08-24T06:29:15.313Z,969.1
2017-08-24T06:30:15.314Z,969.13
2017-08-24T06:31:15.313Z,969.12
2017-08-24T06:32:15.315Z,969.13
2017-08-24T06:33:15.314Z,969.13
2017-08-24T06:34:15.312Z,969.14
2017-08-24T06:35:15.314Z,969.11
2017-08-24T06:36:15.312Z,969.11
2017-08-24T06:37:15.313Z,969.07
2017-08-24T06:38:15.314Z,969.07
2017-08-24T06:39:15.313Z,969.12
2017-08-24T06:40:15.414Z,969.11
2017-08-24T06:41:15.313Z,969.09
2017-08-24T06:42:15.413Z,969.1
2017-08-24T06:43:15.313Z,969.13
2017-08-24T06:44:15.313Z,969.14
2017-08-24T06:45:15.313Z,969.15
2017-08-24T06:46:15.314Z,969.2
2017-08-24T06:47:15.314Z,969.16
2017-08-24T06:48:15.313Z,969.19
2017-08-24T06:49:15.314Z,969.19
2017-08-24T06:50:15.314Z,969.21
2017-08-24T06:51:15.313Z,969.19
2017-08-24T06:52:15.313Z,969.2
2017-08-24T06:53:15.316Z,969.22
2017-08-24T06:54:15.314Z,969.22
2017-08-24T06:55:15.314Z,969.2
2017-08-24T06:56:15.314Z,969.18
2017-08-24T06:57:15.314Z,969.16
2017-08-24T06:58:15.314Z,969.18
2017-08-24T06:59:15.315Z,969.18
2017-08-24T07:00:15.315Z,969.23
2017-08-24T07:01:15.315Z,969.2
2017-08-24T07:02:15.314Z,969.23
2017-08-24T07:03:15.316Z,969.25
2017-08-24T07:04:15.314Z,969.22
2017-08-24T07:05:15.313Z,969.23
2017-08-24T07:06:15.313Z,969.23
2017-08-24T07:07:15.324Z,969.21
2017-08-24T07:08:15.318Z,969.26
2017-08-24T07:09:15.313Z,969.22
2017-08-24T07:10:15.314Z,969.24
2017-08-24T07:11:15.313Z,969.23
2017-08-24T07:12:15.314Z,969.25
2017-08-24T07:13:15.314Z,969.23
2017-08-24T07:14:15.315Z,969.24
2017-08-24T07:15:15.314Z,969.23
2017-08-24T07:16:15.315Z,969.25
2017-08-24T07:17:15.314Z,969.27
2017-08-24T07:18:15.314Z,969.24
2017-08-24T07:19:15.315Z,969.23
2017-08-24T07:20:15.313Z,969.25
2017-08-24T07:21:15.312Z,969.25
2017-08-24T07:22:15.415Z,969.23
2017-08-24T07:23:15.314Z,969.24
2017-08-24T07:24:15.316Z,969.26
2017-08-24T07:25:15.315Z,969.27
2017-08-24T07:26:15.316Z,969.27
2017-08-24T07:27:15.315Z,969.27
2017-08-24T07:28:15.314Z,969.26
2017-08-24T07:29:15.314Z,969.25
2017-08-24T07:30:15.315Z,969.28
2017-08-24T07:31:15.316Z,969.26
2017-08-24T07:32:15.315Z,969.28
2017-08-24T07:33:15.315Z,969.24
2017-08-24T07:34:15.314Z,969.33
2017-08-24T07:35:15.314Z,969.31
2017-08-24T07:36:15.316Z,969.3
2017-08-24T07:37:15.314Z,969.29
2017-08-24T07:38:15.313Z,969.33
2017-08-24T07:39:15.313Z,969.3
2017-08-24T07:40:15.313Z,969.3
2017-08-24T07:41:15.313Z,969.29
2017-08-24T07:42:15.313Z,969.32
2017-08-24T07:43:15.311Z,969.33
2017-08-24T07:44:15.312Z,969.29
2017-08-24T07:45:15.310Z,969.3
2017-08-24T07:46:15.310Z,969.28
2017-08-24T07:47:15.311Z,969.25
2017-08-24T07:48:15.311Z,969.27
2017-08-24T07:49:15.310Z,969.28
2017-08-24T07:50:15.309Z,969.25
2017-08-24T07:51:15.311Z,969.25
2017-08-24T07:52:15.307Z,969.28
2017-08-24T07:53:15.307Z,969.27
2017-08-24T07:54:15.307Z,969.26
2017-08-24T07:55:15.306Z,969.32
2017-08-24T07:56:15.405Z,969.22
2017-08-24T07:57:15.304Z,969.25
2017-08-24T07:58:15.303Z,969.24
2017-08-24T07:59:15.303Z,969.19
2017-08-24T08:00:15.303Z,969.22
2017-08-24T08:01:15.401Z,969.2
2017-08-24T08:02:15.302Z,969.24
2017-08-24T08:03:15.300Z,969.27
2017-08-24T08:04:15.299Z,969.29
2017-08-24T08:05:15.299Z,969.28
2017-08-24T08:06:15.297Z,969.23
2017-08-24T08:07:15.298Z,969.26
2017-08-24T08:08:15.296Z,969.25
2017-08-24T08:09:15.295Z,969.29
2017-08-24T08:10:15.295Z,969.29
2017-08-24T08:11:15.294Z,969.33
2017-08-24T08:12:15.293Z,969.34
2017-08-24T08:13:15.291Z,969.36
2017-08-24T08:14:15.291Z,969.36
2017-08-24T08:15:15.291Z,969.4
2017-08-24T08:16:15.291Z,969.39
2017-08-24T08:17:15.289Z,969.4
2017-08-24T08:18:15.287Z,969.38
2017-08-24T08:19:15.286Z,969.4
2017-08-24T08:20:15.286Z,969.4
2017-08-24T08:21:15.285Z,969.45
2017-08-24T08:22:15.284Z,969.39
2017-08-24T08:23:15.282Z,969.37
2017-08-24T08:24:15.382Z,969.38
2017-08-24T08:25:15.279Z,969.37
2017-08-24T08:26:15.282Z,969.36
2017-08-24T08:27:15.278Z,969.39
2017-08-24T08:28:15.277Z,969.36
2017-08-24T08:29:15.275Z,969.42
2017-08-24T08:30:15.275Z,969.38
2017-08-24T08:31:15.273Z,969.35
2017-08-24T08:32:15.273Z,969.37
2017-08-24T08:33:15.270Z,969.37
2017-08-24T08:34:15.371Z,969.4
2017-08-24T08:35:15.269Z,969.4
2017-08-24T08:36:15.269Z,969.39
2017-08-24T08:37:15.267Z,969.41
2017-08-24T08:38:15.266Z,969.38
2017-08-24T08:39:15.264Z,969.39
2017-08-24T08:40:15.262Z,969.44
2017-08-24T08:41:15.262Z,969.49
2017-08-24T08:42:15.264Z,969.43
2017-08-24T08:43:15.259Z,969.48
2017-08-24T08:44:15.257Z,969.47
2017-08-24T08:45:15.255Z,969.46
2017-08-24T08:46:15.255Z,969.47
2017-08-24T08:47:15.253Z,969.46
2017-08-24T08:48:15.252Z,969.47
2017-08-24T08:49:15.252Z,969.47
2017-08-24T08:50:15.249Z,969.45
2017-08-24T08:51:15.248Z,969.49
2017-08-24T08:52:15.246Z,969.46
2017-08-24T08:53:15.245Z,969.48
2017-08-24T08:54:15.244Z,969.44
2017-08-24T08:55:15.242Z,969.44
2017-08-24T08:56:15.247Z,969.41
2017-08-24T08:57:15.240Z,969.42
2017-08-24T08:58:15.240Z,969.44
2017-08-24T08:59:15.238Z,969.42
2017-08-24T09:00:15.237Z,969.41
2017-08-24T09:01:15.237Z,969.42
2017-08-24T09:02:15.234Z,969.44
2017-08-24T09:03:15.234Z,969.4
2017-08-24T09:04:15.334Z,969.44
2017-08-24T09:05:15.232Z,969.44
2017-08-24T09:06:15.229Z,969.51
2017-08-24T09:07:15.229Z,969.51
2017-08-24T09:08:15.228Z,969.5
2017-08-24T09:09:15.227Z,969.51
2017-08-24T09:10:15.225Z,969.49
2017-08-24T09:11:15.223Z,969.52
2017-08-24T09:12:15.224Z,969.48
2017-08-24T09:13:15.221Z,969.45
2017-08-24T09:14:15.220Z,969.43
2017-08-24T09:15:15.220Z,969.41
2017-08-24T09:16:15.218Z,969.41
2017-08-24T09:17:15.218Z,969.43
2017-08-24T09:18:15.217Z,969.39
2017-08-24T09:19:15.214Z,969.43
2017-08-24T09:20:15.213Z,969.38
2017-08-24T09:21:15.211Z,969.4
2017-08-24T09:22:15.210Z,969.41
2017-08-24T09:23:15.209Z,969.44
2017-08-24T09:24:15.209Z,969.44
2017-08-24T09:25:15.206Z,969.42
2017-08-24T09:26:15.206Z,969.4
2017-08-24T09:27:15.207Z,969.43
2017-08-24T09:28:15.203Z,969.46
2017-08-24T09:29:15.203Z,969.4
2017-08-24T09:30:15.201Z,969.44
2017-08-24T09:31:15.198Z,969.42
2017-08-24T09:32:15.200Z,969.43
2017-08-24T09:33:15.197Z,969.43
2017-08-24T09:34:15.197Z,969.36
2017-08-24T09:35:15.196Z,969.34
2017-08-24T09:36:15.194Z,969.36
2017-08-24T09:37:15.192Z,969.36
2017-08-24T09:38:15.192Z,969.37
2017-08-24T09:39:15.189Z,969.43
2017-08-24T09:40:15.190Z,969.41
2017-08-24T09:41:15.193Z,969.38
2017-08-24T09:42:15.186Z,969.36
2017-08-24T09:43:15.186Z,969.33
2017-08-24T09:44:15.183Z,969.35
2017-08-24T09:45:15.183Z,969.37
2017-08-24T09:46:15.182Z,969.35
2017-08-24T09:47:15.181Z,969.38
2017-08-24T09:48:15.183Z,969.37
2017-08-24T09:49:15.178Z,969.34
2017-08-24T09:50:15.175Z,969.3
2017-08-24T09:51:15.173Z,969.27
2017-08-24T09:52:15.174Z,969.27
2017-08-24T09:53:15.172Z,969.29
2017-08-24T09:54:15.170Z,969.31
2017-08-24T09:55:15.168Z,969.31
2017-08-24T09:56:15.168Z,969.31
2017-08-24T09:57:15.168Z,969.32
2017-08-24T09:58:15.165Z,969.3
2017-08-24T09:59:15.164Z,969.32
2017-08-24T10:00:15.163Z,969.3
2017-08-24T10:01:15.162Z,969.28
2017-08-24T10:02:15.164Z,969.27
2017-08-24T10:03:15.158Z,969.27
2017-08-24T10:04:15.163Z,969.26
2017-08-24T10:05:15.155Z,969.25
2017-08-24T10:06:15.155Z,969.23
2017-08-24T10:07:15.160Z,969.27
2017-08-24T10:08:15.150Z,969.26
2017-08-24T10:09:15.150Z,969.26
2017-08-24T10:10:15.249Z,969.23
2017-08-24T10:11:15.149Z,969.25
2017-08-24T10:12:15.145Z,969.31
2017-08-24T10:13:15.144Z,969.24
2017-08-24T10:14:15.144Z,969.24
2017-08-24T10:15:15.141Z,969.23
2017-08-24T10:16:15.142Z,969.24
2017-08-24T10:17:15.139Z,969.23
2017-08-24T10:18:15.138Z,969.23
2017-08-24T10:19:15.141Z,969.18
2017-08-24T10:20:15.137Z,969.22
2017-08-24T10:21:15.133Z,969.18
2017-08-24T10:22:15.133Z,969.17
2017-08-24T10:23:15.130Z,969.19
2017-08-24T10:24:15.129Z,969.18
2017-08-24T10:25:15.128Z,969.18
2017-08-24T10:26:15.126Z,969.16
2017-08-24T10:27:15.126Z,969.16
2017-08-24T10:28:15.223Z,969.18
2017-08-24T10:29:15.124Z,969.18
2017-08-24T10:30:15.121Z,969.16
2017-08-24T10:31:15.144Z,969.17
2017-08-24T10:32:15.120Z,969.14
2017-08-24T10:33:15.117Z,969.16
2017-08-24T10:34:15.116Z,969.17
2017-08-24T10:35:15.116Z,969.15
2017-08-24T10:36:15.131Z,969.12
2017-08-24T10:37:15.112Z,969.13
2017-08-24T10:38:15.111Z,969.15
2017-08-24T10:39:15.113Z,969.1
2017-08-24T10:40:15.109Z,969.09
2017-08-24T10:41:15.107Z,969.12
2017-08-24T10:42:15.107Z,969.08
2017-08-24T10:43:15.105Z,969.11
2017-08-24T10:44:15.103Z,969.06
2017-08-24T10:45:15.102Z,969.03
2017-08-24T10:46:15.101Z,969
2017-08-24T10:47:15.100Z,969.01
2017-08-24T10:48:15.100Z,969
2017-08-24T10:49:15.102Z,968.99
2017-08-24T10:50:15.095Z,968.95
2017-08-24T10:51:15.093Z,968.97
2017-08-24T10:52:15.091Z,968.95
2017-08-24T10:53:15.090Z,968.99
2017-08-24T10:54:15.090Z,968.92
2017-08-24T10:55:15.088Z,968.92
2017-08-24T10:56:15.087Z,968.88
2017-08-24T10:57:15.085Z,968.9
2017-08-24T10:58:15.084Z,968.9
2017-08-24T10:59:15.082Z,968.91
2017-08-24T11:00:15.080Z,968.88
2017-08-24T11:01:15.110Z,968.84
2017-08-24T11:02:15.079Z,968.84
2017-08-24T11:03:15.077Z,968.83
2017-08-24T11:04:15.076Z,968.8
2017-08-24T11:05:15.075Z,968.75
2017-08-24T11:06:15.073Z,968.81
2017-08-24T11:07:15.072Z,968.77
2017-08-24T11:08:15.071Z,968.79
2017-08-24T11:09:15.086Z,968.77
2017-08-24T11:10:15.066Z,968.73
2017-08-24T11:11:15.167Z,968.74
2017-08-24T11:12:15.066Z,968.8
2017-08-24T11:13:15.064Z,968.77
2017-08-24T11:14:15.062Z,968.82
2017-08-24T11:15:15.061Z,968.76
2017-08-24T11:16:15.059Z,968.73
2017-08-24T11:17:15.058Z,968.72
2017-08-24T11:18:15.056Z,968.72
2017-08-24T11:19:15.056Z,968.73
2017-08-24T11:20:15.055Z,968.73
2017-08-24T11:21:15.054Z,968.72
2017-08-24T11:22:15.052Z,968.71
2017-08-24T11:23:15.050Z,968.72
2017-08-24T11:24:15.049Z,968.68
2017-08-24T11:25:15.048Z,968.71
2017-08-24T11:26:15.049Z,968.67
2017-08-24T11:27:15.045Z,968.66
2017-08-24T11:28:15.044Z,968.67
2017-08-24T11:29:15.042Z,968.64
2017-08-24T11:30:15.041Z,968.64
2017-08-24T11:31:15.040Z,968.66
2017-08-24T11:32:15.039Z,968.59
2017-08-24T11:33:15.039Z,968.58
2017-08-24T11:34:15.036Z,968.59
2017-08-24T11:35:15.036Z,968.59
2017-08-24T11:36:15.032Z,968.56
2017-08-24T11:37:15.038Z,968.56
2017-08-24T11:38:15.031Z,968.6
2017-08-24T11:39:15.028Z,968.57
2017-08-24T11:40:15.028Z,968.57
2017-08-24T11:41:15.027Z,968.58
2017-08-24T11:42:15.026Z,968.53
2017-08-24T11:43:15.025Z,968.49
2017-08-24T11:44:15.022Z,968.55
2017-08-24T11:45:15.025Z,968.54
2017-08-24T11:46:15.046Z,968.53
2017-08-24T11:47:15.020Z,968.52
2017-08-24T11:48:15.020Z,968.49
2017-08-24T11:49:15.016Z,968.48
2017-08-24T11:50:15.014Z,968.52
2017-08-24T11:51:15.013Z,968.47
2017-08-24T11:52:15.012Z,968.5
2017-08-24T11:53:15.026Z,968.49
2017-08-24T11:54:15.008Z,968.46
2017-08-24T11:55:15.006Z,968.44
2017-08-24T11:56:15.006Z,968.46
2017-08-24T11:57:15.005Z,968.43
2017-08-24T11:58:15.003Z,968.43
2017-08-24T11:59:15.003Z,968.46
2017-08-24T12:00:15.000Z,968.44
2017-08-24T12:01:14.999Z,968.42
2017-08-24T12:02:14.998Z,968.45
2017-08-24T12:03:14.996Z,968.46
2017-08-24T12:04:14.996Z,968.48
2017-08-24T12:05:14.993Z,968.41
2017-08-24T12:06:14.991Z,968.41
2017-08-24T12:07:14.990Z,968.42
2017-08-24T12:08:14.989Z,968.42
2017-08-24T12:09:14.988Z,968.4
2017-08-24T12:10:14.988Z,968.41
2017-08-24T12:11:14.988Z,968.4
2017-08-24T12:12:14.985Z,968.4
2017-08-24T12:13:14.983Z,968.39
2017-08-24T12:14:14.982Z,968.38
2017-08-24T12:15:14.980Z,968.35
2017-08-24T12:16:14.979Z,968.37
2017-08-24T12:17:14.978Z,968.38
2017-08-24T12:18:14.976Z,968.36
2017-08-24T12:19:14.973Z,968.37
2017-08-24T12:20:14.975Z,968.38
2017-08-24T12:21:14.973Z,968.38
2017-08-24T12:22:14.972Z,968.33
2017-08-24T12:23:14.969Z,968.31
2017-08-24T12:24:14.968Z,968.3
2017-08-24T12:25:14.967Z,968.27
2017-08-24T12:26:14.965Z,968.28
2017-08-24T12:27:14.963Z,968.27
2017-08-24T12:28:14.964Z,968.26
2017-08-24T12:29:14.962Z,968.25
2017-08-24T12:30:14.960Z,968.18
2017-08-24T12:31:14.960Z,968.17